Terminal Aerodrome Forecast
Issued by NWS Pocatello, ID

Home | Current Version | Previous Version | Text Only | Print | Product List | Glossary On
Versions: 1 2 3 4 5 6 7 8 9 10 11 12
000
FTUS45 KPIH 251120
TAFBYI
TAF
KBYI 251120Z 2512/2612 21006KT P6SM SCT050 SCT080
     FM251700 27008KT P6SM SCT050 SCT200
     FM260400 21006KT P6SM SCT060 SCT160=

USA.gov is the U.S. government's official web portal to all federal, state and local government web resources and services.